Hlavní strana
METAR-TAF:

METAR-TAF

Letiště :

Džíbútí, Džibutsko

zeměpisná šířka: 11-33N, zeměpisná délka: 043-10E, výška: 49 m

Aktuální stav počasí

Zpráva byla vytvořena před 3 hodinami a 31 minutami, v 11:00 UTC
Východoseverovýchodní vítr 13 kt
Teplota 33°C
Vlhkost vzduchu 63%
Tlak 1009 hPa
Viditelnost 10 km a více
Skoro jasno ve výšce 2300 ft
Oblačno až skoro zataženo ve výšce 26600 ft

METAR: HDAM 221100Z 07013KT 9999 FEW023 BKN266 33/25 Q1009

Čas: 17:31 (14:31 UTC)

Předpověď počasí

Zpráva byla vytvořena před 3 hodinami a 31 minutami, v 11:00 UTC
Předpověď platná od 22 v 12 UTC do 23 v 12 UTC
Východní vítr 10 kt
Viditelnost 10 km a více
Skoro jasno ve výšce 3000 ft, Cumulonimbus.
Změna
od 22 v 15 UTC do 22 v 18 UTC
vítr z různých směrů 3 kt
Polojasno ve výšce 2000 ft
Změna
od 23 v 00 UTC do 23 v 06 UTC
Severní vítr kt

TAF: HDAM 221100Z 2212/2312 08010KT 9999 FEW030CB BECMG 2215/2218 VRB03KT SCT020 BECMG 2300/2306 00000KT

Stav a předpovědi počasí z více než 4 000 letišť (zprávy METAR a TAF).

Červené a žluté tečky na mapě představují dostupné meteorologické stanice.

Když kurzor umístíte na tečku, zobrazí se název stanice.

Pak kliknutím zobrazíte stav a předpověď počasí.

Chcete-li změnit mapu, kliknutím na zelené tlačítko se znaménkem +mapu přiblížíte, kliknutím na zelené tlačítko se znaménkem – mapu oddálíte a kliknutím na zelené šipky přejdete na sousední mapy.


METAR-TAF: